Accueil
METAR-TAF:

METAR-TAF

Aéroports :

Aéroport de Sion

Sion, Suisse

latitude: 46-13N, longitude: 007-20E, altitude: 482 m

Observation

Le bulletin a été fait il y a 35 minutes, à 06:50 UTC
Vent 3 kt de est/nord-est
Température 1°C
Humidité 64%
Pression 1030 hPa
Visibilité 10 km ou plus
pas de nuages en-dessous de 1500 mètres et pas de cumulonimbus.

METAR: LSGS 200650Z 06003KT CAVOK 01/M05 Q1030

Heure: 08:25 (07:25 UTC)

Prévision

Le bulletin a été fait il y a 2 heures et 0 minutes, à 05:25 UTC
Prévision valable du 20 à 06 UTC au 20 à 15 UTC
Vent 3 kt de direction variable
Visibilité 10 km ou plus
pas de nuages en-dessous de 1500 mètres et pas de cumulonimbus.
Evoluant progressivement
du 20 à 11 UTC au 20 à 13 UTC
Vent 12 kt de ouest/sud-ouest

TAF: LSGS 200525Z 2006/2015 VRB03KT CAVOK BECMG 2011/2013 25012KT

Observations et prévisions météorologiques de plus de 4000 aéroports (messages METAR et TAF).

Les stations disponibles sont représentées par des disques jaunes et rouges sur la carte.

Passer la souris dessus pour voir le nom de la station.

Cliquer dessus pour voir les observations et prévisions météorologiques.

Pour changer de carte: cliquez sur les boutons verts avec une croix noire pour zoomer, sur le bouton vert avec un tiret pour effectuer un zoom arrière, ou sur les flèches vertes pour les cartes adjacentes.


METAR-TAF: